Terminal Aerodrome Forecast
Issued by NWS Denver/Boulder, CO

Home | Current Version | Previous Version | Text Only | Print | Product List | Glossary On
Versions: 1 2 3 4 5 6 7 8 9 10 11 12 13 14 15 16 17 18 19 20 21 22 23 24 25 26 27 28 29 30 31 32 33
000
FTUS45 KBOU 180522
TAFDEN
TAF
KDEN 180522Z 1806/1912 19012KT P6SM SCT220
     FM180800 22014KT P6SM FEW220
     FM181600 20007KT P6SM FEW140 FEW220
     FM182200 24012KT P6SM FEW140 SCT220
     FM190300 21010KT P6SM SCT140 BKN200=

USA.gov is the U.S. government's official web portal to all federal, state and local government web resources and services.